Time;durP1;ratioP1;P1;durP2;ratioP2;P2;SDS_P1;SDS_P2;PMS_P1;PMS_P2;Temp;Humidity;BMP_temperature;BMP_pressure;BME280_temperature;BME280_humidity;BME280_pressure;Samples;Min_cycle;Max_cycle;Signal;HPM_P1;HPM_P2
2021/09/12 00:01:11;;;;;;;15.02;7.03;;;;;;;13.17;100.00;101846.88;5165422;28;20038;-78
2021/09/12 00:03:41;;;;;;;15.40;6.57;;;;;;;13.11;100.00;101854.75;5165730;28;20179;-78
2021/09/12 00:06:12;;;;;;;14.23;6.35;;;;;;;13.08;100.00;101850.50;5163880;28;20030;-77
2021/09/12 00:08:42;;;;;;;21.70;6.95;;;;;;;13.03;100.00;101847.44;5163985;28;20045;-78
2021/09/12 00:11:13;;;;;;;14.82;6.35;;;;;;;12.96;100.00;101847.25;5148749;28;20105;-78
2021/09/12 00:13:44;;;;;;;14.63;6.50;;;;;;;12.87;100.00;101845.50;5164573;28;20037;-78
2021/09/12 00:16:14;;;;;;;23.05;6.53;;;;;;;12.80;100.00;101857.03;5164223;28;20030;-78
2021/09/12 00:18:45;;;;;;;15.68;6.15;;;;;;;12.72;100.00;101848.91;5163952;28;20026;-78
2021/09/12 00:21:16;;;;;;;17.92;6.53;;;;;;;12.63;100.00;101843.44;5163461;28;20034;-78
2021/09/12 00:23:46;;;;;;;19.90;7.22;;;;;;;12.59;100.00;101843.91;5164740;28;20022;-78
2021/09/12 00:26:17;;;;;;;16.50;6.20;;;;;;;12.53;100.00;101842.69;5163036;28;20029;-78
2021/09/12 00:28:47;;;;;;;20.73;7.38;;;;;;;12.52;100.00;101843.69;5163543;28;20045;-78
2021/09/12 00:31:18;;;;;;;11.13;5.32;;;;;;;12.49;100.00;101835.06;5162507;28;20365;-78
2021/09/12 00:33:48;;;;;;;11.07;5.80;;;;;;;12.44;100.00;101846.28;5164290;28;20026;-77
2021/09/12 00:36:19;;;;;;;12.75;6.50;;;;;;;12.37;100.00;101834.47;5162829;28;20022;-78
2021/09/12 00:38:49;;;;;;;10.90;6.05;;;;;;;12.32;100.00;101842.16;5162558;28;20034;-78
2021/09/12 00:41:20;;;;;;;23.80;6.50;;;;;;;12.25;100.00;101841.06;5150123;28;20073;-78
2021/09/12 00:43:50;;;;;;;12.30;6.10;;;;;;;12.19;100.00;101834.44;5164018;28;20026;-78
2021/09/12 00:46:20;;;;;;;14.50;6.43;;;;;;;12.10;100.00;101841.63;5163573;28;20101;-78
2021/09/12 00:48:51;;;;;;;14.63;7.07;;;;;;;12.04;100.00;101828.75;5162610;28;20053;-78
2021/09/12 00:51:21;;;;;;;11.98;5.78;;;;;;;11.95;100.00;101832.38;5163085;28;20516;-78
2021/09/12 00:53:54;;;;;;;9.70;5.22;;;;;;;11.83;100.00;101833.56;5163639;28;20030;-78
2021/09/12 00:56:28;;;;;;;10.27;5.00;;;;;;;11.76;100.00;101827.06;5162405;28;20029;-78
2021/09/12 00:59:00;;;;;;;21.88;6.35;;;;;;;11.70;100.00;101827.66;5162107;28;20034;-78
2021/09/12 01:01:32;;;;;;;16.95;6.70;;;;;;;11.62;100.00;101825.72;5162874;28;20022;-78
2021/09/12 01:04:03;;;;;;;11.02;6.50;;;;;;;11.55;100.00;101822.78;5149832;28;20061;-78
2021/09/12 01:06:36;;;;;;;13.38;6.43;;;;;;;11.53;100.00;101823.94;5162200;28;20030;-78
2021/09/12 01:09:21;;;;;;;19.77;7.07;;;;;;;11.51;100.00;101823.25;5162256;28;20480;-78
2021/09/12 01:11:57;;;;;;;14.23;6.50;;;;;;;11.51;100.00;101823.25;5163786;28;20042;-79
2021/09/12 01:14:30;;;;;;;10.77;6.07;;;;;;;11.49;100.00;101820.69;5162456;28;20078;-79
2021/09/12 01:17:01;;;;;;;24.35;8.57;;;;;;;11.48;100.00;101813.63;5144855;28;20547;-78
2021/09/12 01:19:46;;;;;;;15.10;6.80;;;;;;;11.50;100.00;101818.88;5163796;28;20030;-78
2021/09/12 01:22:33;;;;;;;14.95;6.85;;;;;;;11.46;100.00;101818.31;5164251;28;20476;-80
2021/09/12 01:25:05;;;;;;;17.67;6.88;;;;;;;11.41;100.00;101813.38;5144356;28;20392;-79
2021/09/12 01:27:35;;;;;;;17.58;7.60;;;;;;;11.37;100.00;101828.09;5163587;28;20018;-79
2021/09/12 01:30:06;;;;;;;14.65;7.20;;;;;;;11.31;100.00;101822.47;5161555;28;20022;-78
2021/09/12 01:32:37;;;;;;;15.70;6.70;;;;;;;11.24;100.00;101826.72;5162876;28;20034;-79
2021/09/12 01:35:08;;;;;;;18.52;6.75;;;;;;;11.18;100.00;101828.16;5162937;28;20110;-79
2021/09/12 01:37:39;;;;;;;14.20;5.60;;;;;;;11.14;100.00;101824.94;5162761;28;20037;-79
2021/09/12 01:40:10;;;;;;;11.30;5.15;;;;;;;11.09;100.00;101820.97;5161966;28;20472;-79
2021/09/12 01:42:41;;;;;;;7.50;3.78;;;;;;;11.03;100.00;101814.34;5162767;28;20176;-79
2021/09/12 01:45:11;;;;;;;16.92;5.68;;;;;;;11.01;100.00;101813.66;5162149;28;20026;-78
2021/09/12 01:47:46;;;;;;;16.60;5.68;;;;;;;10.96;100.00;101812.41;5162100;28;20037;-79
2021/09/12 01:50:17;;;;;;;11.48;6.10;;;;;;;10.93;100.00;101813.53;5163311;28;20065;-79
2021/09/12 01:52:47;;;;;;;12.88;6.30;;;;;;;10.92;100.00;101813.69;5161798;28;20110;-78
2021/09/12 01:55:18;;;;;;;14.40;6.20;;;;;;;10.87;100.00;101809.59;5160902;28;20080;-78
2021/09/12 01:57:49;;;;;;;14.68;7.03;;;;;;;10.84;100.00;101806.34;5161694;28;20027;-79
2021/09/12 02:00:20;;;;;;;15.00;7.57;;;;;;;10.81;100.00;101804.81;5162681;28;20038;-79
2021/09/12 02:02:51;;;;;;;19.10;7.22;;;;;;;10.78;100.00;101806.94;5164189;28;20033;-79
2021/09/12 02:05:24;;;;;;;17.00;6.38;;;;;;;10.76;100.00;101807.06;5162943;28;20105;-78
2021/09/12 02:07:54;;;;;;;19.00;7.25;;;;;;;10.76;100.00;101806.22;5163218;28;20113;-78
2021/09/12 02:10:26;;;;;;;13.35;6.80;;;;;;;10.77;100.00;101810.59;5163190;28;20900;-78
2021/09/12 02:13:09;;;;;;;19.77;9.27;;;;;;;10.76;100.00;101808.91;5160733;28;20038;-78
2021/09/12 02:15:40;;;;;;;20.38;7.65;;;;;;;10.77;100.00;101805.25;5158235;28;20038;-78
2021/09/12 02:18:11;;;;;;;17.80;8.02;;;;;;;10.75;100.00;101807.22;5161206;28;20045;-78
2021/09/12 02:20:42;;;;;;;18.38;6.80;;;;;;;10.76;100.00;101808.91;5160804;28;20026;-77
2021/09/12 02:23:12;;;;;;;12.38;6.38;;;;;;;10.74;100.00;101811.72;5160863;28;20023;-77
2021/09/12 02:25:43;;;;;;;22.83;7.60;;;;;;;10.77;100.00;101810.59;5160708;28;20423;-78
2021/09/12 02:28:13;;;;;;;14.90;6.85;;;;;;;10.76;100.00;101814.28;5160793;28;20022;-77
2021/09/12 02:30:44;;;;;;;17.20;7.05;;;;;;;10.76;100.00;101825.03;5160251;28;20023;-78
2021/09/12 02:33:15;;;;;;;16.80;6.53;;;;;;;10.77;100.00;101814.13;5160580;28;20262;-78
2021/09/12 02:35:45;;;;;;;17.10;6.43;;;;;;;10.78;100.00;101812.28;5160811;28;20034;-78
2021/09/12 02:38:16;;;;;;;15.93;6.88;;;;;;;10.75;100.00;101809.91;5162986;28;20018;-78
2021/09/12 02:40:47;;;;;;;19.98;7.50;;;;;;;10.73;100.00;101817.25;5161873;28;20368;-78
2021/09/12 02:43:17;;;;;;;24.35;8.07;;;;;;;10.69;100.00;101813.16;5162594;28;20110;-78
2021/09/12 02:45:47;;;;;;;17.65;7.38;;;;;;;10.65;100.00;101812.63;5160994;28;20022;-78
2021/09/12 02:48:18;;;;;;;19.48;7.00;;;;;;;10.63;100.00;101806.53;5161082;28;20550;-78
2021/09/12 02:50:48;;;;;;;19.33;8.00;;;;;;;10.63;100.00;101811.88;5160234;28;20018;-77
2021/09/12 02:53:19;;;;;;;22.48;7.47;;;;;;;10.59;100.00;101811.34;5153013;28;20341;-76
2021/09/12 02:55:49;;;;;;;15.70;7.32;;;;;;;10.55;100.00;101819.81;5159175;28;20061;-76
2021/09/12 02:58:20;;;;;;;16.10;7.63;;;;;;;10.54;100.00;101821.66;5160020;28;20494;-76
2021/09/12 03:00:50;;;;;;;18.50;8.13;;;;;;;10.53;100.00;101824.47;5159852;28;20531;-76
2021/09/12 03:03:21;;;;;;;16.67;7.35;;;;;;;10.53;100.00;101819.09;5160425;28;20467;-77
2021/09/12 03:05:52;;;;;;;18.80;7.25;;;;;;;10.50;100.00;101820.25;5159805;28;20018;-76
2021/09/12 03:08:22;;;;;;;15.75;7.75;;;;;;;10.47;100.00;101822.34;5159987;28;20033;-77
2021/09/12 03:10:53;;;;;;;21.85;8.02;;;;;;;10.42;100.00;101820.09;5159312;28;20030;-77
2021/09/12 03:13:24;;;;;;;15.10;6.45;;;;;;;10.39;100.00;101817.69;5159835;28;20035;-77
2021/09/12 03:15:55;;;;;;;21.25;7.68;;;;;;;10.42;100.00;101820.09;5159018;28;20039;-77
2021/09/12 03:18:25;;;;;;;17.92;7.28;;;;;;;10.47;100.00;101820.53;5160038;28;20132;-76
2021/09/12 03:20:56;;;;;;;16.13;6.43;;;;;;;10.49;100.00;101817.69;5159652;28;20101;-77
2021/09/12 03:23:26;;;;;;;15.75;6.55;;;;;;;10.51;100.00;101815.72;5160648;28;20022;-78
2021/09/12 03:25:57;;;;;;;12.98;6.63;;;;;;;10.53;100.00;101813.72;5159835;28;20026;-76
2021/09/12 03:28:27;;;;;;;13.60;6.50;;;;;;;10.53;100.00;101811.91;5163470;28;20028;-77
2021/09/12 03:30:58;;;;;;;12.95;6.75;;;;;;;10.52;100.00;101812.03;5163228;28;20105;-78
2021/09/12 03:33:29;;;;;;;19.55;7.22;;;;;;;10.53;100.00;101805.69;5163613;28;20040;-77
2021/09/12 03:35:59;;;;;;;18.35;7.55;;;;;;;10.52;100.00;101812.88;5163100;28;20031;-79
2021/09/12 03:38:30;;;;;;;20.42;7.30;;;;;;;10.53;100.00;101811.06;5163693;28;20472;-77
2021/09/12 03:41:00;;;;;;;20.67;8.68;;;;;;;10.55;100.00;101807.25;5162348;28;20067;-77
2021/09/12 03:43:31;;;;;;;18.90;7.38;;;;;;;10.56;100.00;101808.94;5163529;28;20109;-78
2021/09/12 03:46:02;;;;;;;23.77;8.50;;;;;;;10.58;100.00;101803.41;5162538;28;20037;-77
2021/09/12 03:48:32;;;;;;;20.15;7.68;;;;;;;10.55;100.00;101807.25;5162986;28;20022;-77
2021/09/12 03:51:03;;;;;;;15.48;6.80;;;;;;;10.51;100.00;101808.53;5161540;28;20592;-77
2021/09/12 03:53:34;;;;;;;19.80;8.35;;;;;;;10.47;100.00;101798.22;5155517;28;20031;-77
2021/09/12 03:56:04;;;;;;;23.60;8.52;;;;;;;10.46;100.00;101800.06;5162711;28;20447;-77
2021/09/12 03:58:35;;;;;;;17.23;8.40;;;;;;;10.47;100.00;101801.75;5163029;28;20535;-77
2021/09/12 04:01:05;;;;;;;16.30;7.32;;;;;;;10.46;100.00;101808.09;5162728;28;20022;-78
2021/09/12 04:03:36;;;;;;;19.27;6.93;;;;;;;10.43;100.00;101804.84;5163034;28;20125;-77
2021/09/12 04:06:06;;;;;;;15.05;6.70;;;;;;;10.40;100.00;101807.84;5162258;28;20450;-77
2021/09/12 04:08:37;;;;;;;12.15;6.82;;;;;;;10.38;100.00;101806.13;5162971;28;20026;-77
2021/09/12 04:11:07;;;;;;;19.60;8.02;;;;;;;10.34;100.00;101806.53;5162185;28;20109;-77
2021/09/12 04:13:38;;;;;;;13.40;7.18;;;;;;;10.33;100.00;101807.53;5162395;28;20491;-77
2021/09/12 04:16:08;;;;;;;24.45;8.45;;;;;;;10.29;100.00;101806.09;5162106;28;20100;-76
2021/09/12 04:18:39;;;;;;;19.40;7.53;;;;;;;10.30;100.00;101807.84;5162222;28;20026;-77
2021/09/12 04:21:09;;;;;;;28.13;8.30;;;;;;;10.29;100.00;101812.34;5162115;28;20033;-77
2021/09/12 04:23:40;;;;;;;16.63;7.35;;;;;;;10.23;100.00;101801.28;5145403;28;20034;-76
2021/09/12 04:26:10;;;;;;;19.05;7.28;;;;;;;10.20;100.00;101802.44;5144600;28;20116;-77
2021/09/12 04:28:41;;;;;;;15.95;7.63;;;;;;;10.19;100.00;101810.59;5144870;28;20026;-77
2021/09/12 04:31:12;;;;;;;21.30;8.02;;;;;;;10.17;100.00;101817.94;5161665;28;20507;-77
2021/09/12 04:33:42;;;;;;;21.48;7.60;;;;;;;10.15;100.00;101811.88;5162574;28;20057;-77
2021/09/12 04:36:13;;;;;;;19.30;7.88;;;;;;;10.13;100.00;101812.00;5161721;28;20018;-77
2021/09/12 04:38:43;;;;;;;17.15;7.47;;;;;;;10.10;100.00;101806.94;5161261;28;20042;-77
2021/09/12 04:41:14;;;;;;;16.02;7.55;;;;;;;10.07;100.00;101813.41;5161993;28;20026;-77
2021/09/12 04:43:44;;;;;;;16.75;7.10;;;;;;;10.03;100.00;101808.47;5161943;28;20018;-77
2021/09/12 04:46:15;;;;;;;15.40;6.55;;;;;;;9.96;100.00;101808.19;5161538;28;20033;-77
2021/09/12 04:48:46;;;;;;;10.90;5.80;;;;;;;9.94;100.00;101803.94;5160956;28;20511;-77
2021/09/12 04:51:16;;;;;;;12.15;5.97;;;;;;;9.94;100.00;101812.84;5161757;28;20158;-76
2021/09/12 04:53:47;;;;;;;25.58;7.57;;;;;;;10.04;100.00;101808.34;5161658;28;20073;-75
2021/09/12 04:56:17;;;;;;;16.35;7.47;;;;;;;10.08;100.00;101803.53;5162581;28;20435;-74
2021/09/12 04:58:47;;;;;;;23.88;8.98;;;;;;;10.19;100.00;101810.59;5162471;28;20066;-75
2021/09/12 05:01:18;;;;;;;22.73;8.00;;;;;;;10.24;100.00;101808.38;5162243;28;20027;-75
2021/09/12 05:03:51;;;;;;;20.30;8.00;;;;;;;10.25;100.00;101810.09;5161694;28;20046;-75
2021/09/12 05:06:21;;;;;;;19.23;7.90;;;;;;;10.24;100.00;101808.38;5160916;28;20081;-75
2021/09/12 05:08:52;;;;;;;20.70;8.05;;;;;;;10.26;100.00;101817.13;5161262;28;20113;-75
2021/09/12 05:11:22;;;;;;;18.33;8.27;;;;;;;10.29;100.00;101809.66;5161076;28;20026;-75
2021/09/12 05:13:53;;;;;;;23.58;7.82;;;;;;;10.30;100.00;101813.19;5161619;28;20022;-75
2021/09/12 05:16:23;;;;;;;27.23;7.72;;;;;;;10.30;100.00;101810.50;5161149;28;20026;-75
2021/09/12 05:18:54;;;;;;;26.45;8.77;;;;;;;10.35;100.00;101810.94;5160879;28;20080;-75
2021/09/12 05:21:24;;;;;;;21.65;8.18;;;;;;;10.38;100.00;101811.47;5161015;28;20034;-76
2021/09/12 05:23:55;;;;;;;27.80;9.38;;;;;;;10.43;100.00;101816.41;5156661;28;20460;-76
2021/09/12 05:26:27;;;;;;;27.67;9.32;;;;;;;10.51;100.00;101819.25;5154305;28;20053;-75
2021/09/12 05:28:57;;;;;;;24.00;8.90;;;;;;;10.54;100.00;101818.09;5154448;28;20049;-75
2021/09/12 05:31:28;;;;;;;20.55;9.10;;;;;;;10.56;100.00;101808.94;5159666;28;20150;-76
2021/09/12 05:33:58;;;;;;;25.58;10.27;;;;;;;10.67;100.00;101816.00;5160269;28;20034;-76
2021/09/12 05:36:29;;;;;;;26.10;11.40;;;;;;;10.72;100.00;101815.56;5159517;28;20073;-75
2021/09/12 05:38:59;;;;;;;19.67;9.50;;;;;;;10.81;100.00;101812.84;5159750;28;20502;-75
2021/09/12 05:41:30;;;;;;;24.58;9.85;;;;;;;10.87;100.00;101816.81;5126463;28;20032;-76
2021/09/12 05:44:01;;;;;;;22.05;8.55;;;;;;;10.89;100.00;101817.50;5159635;28;20023;-75
2021/09/12 05:46:34;;;;;;;19.92;8.20;;;;;;;10.93;100.00;101826.09;5159382;28;20037;-75
2021/09/12 05:49:04;;;;;;;25.98;9.18;;;;;;;11.00;100.00;101819.19;5158997;28;20033;-75
2021/09/12 05:51:35;;;;;;;23.83;9.20;;;;;;;11.12;100.00;101826.91;5160015;28;20034;-76
2021/09/12 05:54:05;;;;;;;17.98;8.45;;;;;;;11.24;100.00;101827.56;5159687;28;20022;-75
2021/09/12 05:56:36;;;;;;;17.73;8.13;;;;;;;11.35;100.00;101826.56;5159335;28;20031;-75
2021/09/12 05:59:07;;;;;;;16.25;8.63;;;;;;;11.42;100.00;101824.97;5159360;28;20018;-74
2021/09/12 06:01:37;;;;;;;24.58;8.30;;;;;;;11.49;100.00;101823.38;5159563;28;20026;-75
2021/09/12 06:04:08;;;;;;;17.52;7.63;;;;;;;11.58;100.00;101829.69;5159969;28;20424;-75
2021/09/12 06:06:38;;;;;;;21.08;7.32;;;;;;;11.76;100.00;101832.44;5159405;28;20443;-76
2021/09/12 06:09:09;;;;;;;20.98;7.78;;;;;;;12.42;100.00;101824.09;5158941;28;20062;-75
2021/09/12 06:11:39;;;;;;;21.95;7.60;;;;;;;13.56;100.00;101824.03;5159945;28;20073;-76
2021/09/12 06:14:10;;;;;;;18.38;6.13;;;;;;;14.68;100.00;101834.41;5159547;28;20407;-76
2021/09/12 06:16:41;;;;;;;8.07;4.22;;;;;;;15.63;100.00;101830.00;5159044;28;20444;-76
2021/09/12 06:19:12;;;;;;;9.23;4.20;;;;;;;16.45;100.00;101834.94;5158943;28;20038;-76
2021/09/12 06:21:42;;;;;;;7.88;4.13;;;;;;;17.19;100.00;101827.00;5159436;28;20030;-76
2021/09/12 06:24:13;;;;;;;8.63;3.50;;;;;;;17.53;100.00;101831.88;5141966;28;20088;-76
2021/09/12 06:26:43;;;;;;;7.55;3.17;;;;;;;18.20;100.00;101828.94;5157513;28;20270;-76
2021/09/12 06:29:13;;;;;;;5.00;2.88;;;;;;;18.53;100.00;101832.00;5159459;28;20125;-76
2021/09/12 06:31:44;;;;;;;7.57;3.78;;;;;;;18.18;100.00;101825.59;5160243;28;20109;-76
2021/09/12 06:34:16;;;;;;;7.05;3.40;;;;;;;17.42;100.00;101825.06;5159231;28;20464;-76
2021/09/12 06:36:46;;;;;;;7.18;2.90;;;;;;;17.43;100.00;101836.75;5158284;28;20030;-76
2021/09/12 06:39:20;;;;;;;9.30;3.45;;;;;;;16.86;100.00;101832.75;5158682;28;20030;-76
2021/09/12 06:41:51;;;;;;;13.75;3.50;;;;;;;16.35;100.00;101828.91;5159058;28;20026;-76
2021/09/12 06:44:22;;;;;;;8.88;3.85;;;;;;;15.93;100.00;101830.22;5145187;28;20380;-76
2021/09/12 06:46:52;;;;;;;15.02;3.83;;;;;;;15.15;100.00;101830.97;5158232;28;20122;-76
2021/09/12 06:49:23;;;;;;;7.82;3.22;;;;;;;14.93;100.00;101835.25;5158194;28;20406;-76
2021/09/12 06:51:53;;;;;;;12.20;4.68;;;;;;;14.68;100.00;101831.72;5159205;28;20462;-76
2021/09/12 06:54:23;;;;;;;15.38;4.20;;;;;;;15.12;100.00;101831.34;5150653;28;20298;-76
2021/09/12 06:56:54;;;;;;;8.30;3.53;;;;;;;16.34;100.00;101828.06;5158073;28;20443;-76
2021/09/12 06:59:24;;;;;;;10.65;3.47;;;;;;;17.65;100.00;101833.06;5158668;28;20033;-76
2021/09/12 07:01:55;;;;;;;7.93;3.30;;;;;;;17.98;100.00;101832.69;5160618;28;20084;-76
2021/09/12 07:04:25;;;;;;;12.27;3.60;;;;;;;17.35;100.00;101830.38;5162326;28;20049;-76
2021/09/12 07:06:56;;;;;;;8.07;2.90;;;;;;;17.55;100.00;101837.94;5162072;28;20026;-76
2021/09/12 07:09:28;;;;;;;9.98;3.40;;;;;;;18.30;100.00;101834.91;5145172;28;20026;-76
2021/09/12 07:11:58;;;;;;;9.18;3.13;;;;;;;19.60;100.00;101823.59;5162401;28;20467;-76
2021/09/12 07:14:29;;;;;;;8.60;3.30;;;;;;;20.31;100.00;101828.66;5162956;28;20109;-76
2021/09/12 07:17:00;;;;;;;6.60;2.90;;;;;;;20.37;100.00;101825.09;5162164;28;20483;-76
2021/09/12 07:19:30;;;;;;;8.38;3.25;;;;;;;19.84;100.00;101827.69;5162315;28;20364;-76
2021/09/12 07:22:01;;;;;;;8.93;2.90;;;;;;;20.35;100.00;101824.47;5162556;28;20113;-77
2021/09/12 07:24:32;;;;;;;7.82;3.10;;;;;;;20.92;100.00;101830.41;5162311;28;20388;-76
2021/09/12 07:27:03;;;;;;;9.23;3.00;;;;;;;21.03;100.00;101834.38;5162354;28;20217;-76
2021/09/12 07:29:34;;;;;;;6.07;2.47;;;;;;;21.40;100.00;101824.69;5162042;28;20506;-76
2021/09/12 07:32:05;;;;;;;9.93;2.80;;;;;;;22.58;100.00;101824.28;5162820;28;20038;-77
2021/09/12 07:34:35;;;;;;;6.53;2.80;;;;;;;22.66;100.00;101822.13;5162063;28;20368;-77
2021/09/12 07:37:06;;;;;;;7.70;2.70;;;;;;;22.15;100.00;101830.50;5161799;28;20457;-77
2021/09/12 07:39:37;;;;;;;7.15;3.13;;;;;;;21.48;100.00;101831.78;5161787;28;20018;-76
2021/09/12 07:42:07;;;;;;;7.13;3.22;;;;;;;21.99;100.00;101826.34;5162762;28;20022;-76
2021/09/12 07:44:38;;;;;;;6.70;2.40;;;;;;;23.20;100.00;101826.09;5161966;28;20109;-77
2021/09/12 07:47:08;;;;;;;13.43;3.58;;;;;;;21.91;100.00;101827.44;5142084;28;20031;-77
2021/09/12 07:49:38;;;;;;;11.40;2.55;;;;;;;22.44;100.00;101835.34;5161644;28;20101;-77
2021/09/12 07:52:10;;;;;;;12.85;3.38;;;;;;;22.86;100.00;101838.38;5162549;28;20061;-76
2021/09/12 07:54:41;;;;;;;7.07;2.63;;;;;;;22.61;100.00;101829.34;5136627;28;20030;-77
2021/09/12 07:57:11;;;;;;;10.13;3.45;;;;;;;23.19;100.00;101835.38;5161078;28;20037;-77
2021/09/12 07:59:42;;;;;;;10.68;3.38;;;;;;;23.67;100.00;101836.53;5161018;28;20396;-76
2021/09/12 08:02:12;;;;;;;7.90;3.22;;;;;;;23.83;100.00;101840.56;5162414;28;20120;-77
2021/09/12 08:04:43;;;;;;;9.45;3.03;;;;;;;24.01;100.00;101841.38;5143948;28;20042;-77
2021/09/12 08:07:13;;;;;;;11.40;3.33;;;;;;;22.60;100.00;101839.44;5161215;28;20500;-77
2021/09/12 08:09:44;;;;;;;10.27;3.20;;;;;;;23.45;100.00;101839.72;5142823;28;20153;-77
2021/09/12 08:12:14;;;;;;;14.45;4.50;;;;;;;22.84;100.00;101834.19;5156285;28;20072;-77
2021/09/12 08:14:45;;;;;;;10.90;3.60;;;;;;;22.31;100.00;101840.91;5161418;28;20034;-77
2021/09/12 08:17:15;;;;;;;10.70;3.13;;;;;;;22.13;100.00;101838.88;5161119;28;20027;-76
2021/09/12 08:19:46;;;;;;;8.95;3.45;;;;;;;21.95;100.00;101836.88;5160934;28;20037;-77
2021/09/12 08:22:16;;;;;;;16.13;4.28;;;;;;;20.87;100.00;101852.84;5161418;28;20026;-76
2021/09/12 08:24:47;;;;;;;8.23;3.08;;;;;;;21.28;100.00;101853.63;5161229;28;20218;-77
2021/09/12 08:27:17;;;;;;;10.60;3.70;;;;;;;21.96;100.00;101854.09;5161114;28;20077;-77
2021/09/12 08:29:48;;;;;;;19.95;4.78;;;;;;;21.28;100.00;101859.94;5160691;28;20030;-77
2021/09/12 08:32:18;;;;;;;7.63;3.83;;;;;;;21.76;100.00;101861.53;5161639;28;20035;-77
2021/09/12 08:34:49;;;;;;;15.82;4.15;;;;;;;21.55;100.00;101860.75;5160478;28;20030;-77
2021/09/12 08:37:20;;;;;;;16.70;3.38;;;;;;;21.66;100.00;101862.81;5161067;28;20019;-76
2021/09/12 08:39:50;;;;;;;16.83;4.85;;;;;;;21.09;100.00;101863.56;5161116;28;20447;-77
2021/09/12 08:42:22;;;;;;;15.35;4.90;;;;;;;20.41;100.00;101859.06;5161417;28;20029;-76
2021/09/12 08:44:53;;;;;;;24.98;5.50;;;;;;;20.60;100.00;101864.81;5160736;28;20140;-76
2021/09/12 08:47:24;;;;;;;19.00;5.45;;;;;;;21.12;100.00;101868.56;5160661;28;20117;-77
2021/09/12 08:49:54;;;;;;;18.90;5.70;;;;;;;22.15;100.00;101871.47;5160654;28;20062;-77
2021/09/12 08:52:25;;;;;;;17.45;5.57;;;;;;;23.13;100.00;101873.72;5160771;28;20023;-76
2021/09/12 08:54:55;;;;;;;15.82;4.90;;;;;;;23.36;100.00;101873.09;5153782;28;20022;-77
2021/09/12 08:57:26;;;;;;;15.05;5.72;;;;;;;23.14;100.00;101865.28;5160765;28;20027;-77
2021/09/12 08:59:58;;;;;;;16.70;5.55;;;;;;;22.98;100.00;101860.41;5159924;28;20026;-77
2021/09/12 09:02:28;;;;;;;23.55;5.50;;;;;;;22.90;100.00;101857.97;5160838;28;20455;-77
2021/09/12 09:05:01;;;;;;;22.83;5.80;;;;;;;23.77;100.00;101864.22;5160592;28;20129;-75
2021/09/12 09:07:32;;;;;;;13.10;5.50;;;;;;;22.92;100.00;101862.13;5162005;28;20038;-77
2021/09/12 09:10:16;;;;;;;15.98;5.60;;;;;;;22.09;100.00;101873.16;5159969;28;20105;-77
2021/09/12 09:12:47;;;;;;;24.35;6.13;;;;;;;21.43;100.00;101871.47;5161212;28;20049;-76
2021/09/12 09:19:05;;;;;;;15.43;5.70;;;;;;;20.84;100.00;101874.25;5161052;28;20092;-77
2021/09/12 09:21:41;;;;;;;15.70;6.60;;;;;;;20.59;100.00;101861.25;5160268;28;20458;-77
2021/09/12 09:24:17;;;;;;;14.15;5.90;;;;;;;21.19;100.00;101870.25;5160400;28;20030;-77
2021/09/12 09:26:50;;;;;;;16.10;5.38;;;;;;;20.63;100.00;101861.63;5138153;28;20041;-76
2021/09/12 09:29:23;;;;;;;18.08;6.07;;;;;;;21.14;100.00;101858.31;5155465;28;20434;-77
2021/09/12 09:32:05;;;;;;;13.23;6.35;;;;;;;21.53;100.00;101862.00;5160319;28;20472;-77
2021/09/12 09:34:37;;;;;;;19.77;6.30;;;;;;;21.20;100.00;101862.91;5159877;28;20030;-77
2021/09/12 09:37:08;;;;;;;21.50;7.53;;;;;;;20.97;100.00;101859.78;5160064;28;20027;-77
2021/09/12 09:39:53;;;;;;;17.88;7.63;;;;;;;20.91;100.00;101867.75;5146628;28;20075;-77
2021/09/12 09:42:36;;;;;;;18.40;7.97;;;;;;;20.84;100.00;101864.19;5160341;28;20030;-76
2021/09/12 09:45:08;;;;;;;21.40;8.23;;;;;;;20.74;100.00;101860.22;5159416;28;20105;-77
2021/09/12 09:47:41;;;;;;;21.10;8.23;;;;;;;20.54;100.00;101863.75;5159549;28;20026;-77
2021/09/12 09:50:15;;;;;;;18.27;8.73;;;;;;;20.68;100.00;101857.25;5159019;28;20026;-77
2021/09/12 09:52:49;;;;;;;21.58;9.02;;;;;;;20.57;100.00;101857.03;5160073;28;20071;-76
2021/09/12 09:55:22;;;;;;;21.45;8.63;;;;;;;20.92;100.00;101858.50;5159114;28;20037;-77
2021/09/12 09:57:54;;;;;;;14.88;7.50;;;;;;;22.04;100.00;101858.44;5160049;28;20038;-77
2021/09/12 10:00:26;;;;;;;20.83;8.98;;;;;;;21.17;100.00;101858.69;5158714;28;20512;-77
2021/09/12 10:02:58;;;;;;;21.35;9.00;;;;;;;21.10;100.00;101852.44;5159754;28;20532;-77
2021/09/12 10:05:28;;;;;;;21.48;9.25;;;;;;;21.14;100.00;101850.13;5158852;28;20101;-77
2021/09/12 10:07:59;;;;;;;23.95;8.60;;;;;;;21.14;100.00;101850.13;5159869;28;20507;-77
2021/09/12 10:10:30;;;;;;;19.73;9.90;;;;;;;20.92;100.00;101858.50;5138957;28;20420;-77
2021/09/12 10:13:03;;;;;;;24.33;10.00;;;;;;;20.50;100.00;101848.00;5153994;28;20116;-77
2021/09/12 10:15:37;;;;;;;18.80;10.02;;;;;;;20.24;100.00;101846.88;5159078;28;20038;-76
2021/09/12 10:18:10;;;;;;;20.50;9.95;;;;;;;20.26;100.00;101844.78;5159781;28;20027;-77
2021/09/12 10:20:40;;;;;;;20.00;9.95;;;;;;;20.41;100.00;101847.34;5158838;28;20023;-77
2021/09/12 10:23:12;;;;;;;22.48;9.43;;;;;;;20.85;100.00;101849.50;5159111;28;20049;-77
2021/09/12 10:25:48;;;;;;;21.77;9.00;;;;;;;20.99;100.00;101846.78;5158832;28;20030;-77
2021/09/12 10:28:34;;;;;;;23.83;8.77;;;;;;;21.75;100.00;101841.59;5159424;28;20057;-77
2021/09/12 10:31:32;;;;;;;;;;;;;;;22.04;100.00;101842.06;5159335;28;20023;-77
2021/09/12 10:34:05;;;;;;;19.83;8.75;;;;;;;22.14;100.00;101843.31;5159463;28;20009;-77
2021/09/12 10:36:37;;;;;;;24.80;8.88;;;;;;;21.88;100.00;101844.22;5160294;28;20056;-77
2021/09/12 10:39:28;;;;;;;22.27;9.25;;;;;;;21.61;100.00;101854.44;5163025;28;20041;-77
2021/09/12 10:42:12;;;;;;;17.77;8.48;;;;;;;21.81;100.00;101851.63;5163320;28;20391;-77
2021/09/12 10:44:42;;;;;;;53.55;17.15;;;;;;;22.17;100.00;101852.97;5151687;28;20030;-77
2021/09/12 10:47:14;;;;;;;16.27;7.90;;;;;;;21.97;100.00;101853.88;5163904;28;20014;-77
2021/09/12 10:49:45;;;;;;;37.90;11.68;;;;;;;22.15;100.00;101845.00;5155299;28;20018;-77
2021/09/12 10:52:44;;;;;;;15.85;7.20;;;;;;;22.26;100.00;101848.09;5159797;28;20451;-77
2021/09/12 10:55:15;;;;;;;16.02;7.25;;;;;;;22.55;100.00;101849.38;5162442;28;20594;-77
2021/09/12 10:57:46;;;;;;;16.27;8.45;;;;;;;22.59;100.00;101847.84;5163103;28;20109;-77
2021/09/12 11:00:18;;;;;;;16.40;8.05;;;;;;;22.52;100.00;101844.34;5162173;28;20395;-77
2021/09/12 11:02:49;;;;;;;22.15;8.68;;;;;;;22.87;100.00;101847.41;5162531;28;20488;-77
2021/09/12 11:05:24;;;;;;;17.15;7.80;;;;;;;23.14;100.00;101850.78;5161708;28;20669;-77
2021/09/12 11:07:56;;;;;;;17.65;8.23;;;;;;;22.89;100.00;101839.84;5162927;28;20498;-77
2021/09/12 11:10:34;;;;;;;15.73;8.43;;;;;;;22.59;100.00;101845.09;5161585;28;20034;-77
2021/09/12 11:13:07;;;;;;;17.25;7.43;;;;;;;22.80;100.00;101836.53;5162752;28;20037;-77
2021/09/12 11:15:37;;;;;;;18.50;8.35;;;;;;;22.55;100.00;101838.44;5161930;28;20053;-77
2021/09/12 11:18:08;;;;;;;18.08;8.30;;;;;;;22.99;100.00;101845.66;5162865;28;20057;-77
2021/09/12 11:20:41;;;;;;;18.90;8.82;;;;;;;22.99;100.00;101840.16;5162157;28;20526;-77
2021/09/12 11:23:29;;;;;;;18.88;7.38;;;;;;;22.95;100.00;101838.97;5163157;28;20031;-77
2021/09/12 11:25:59;;;;;;;18.95;7.70;;;;;;;23.04;100.00;101834.03;5162155;28;20066;-76
2021/09/12 11:28:33;;;;;;;15.70;7.50;;;;;;;23.10;100.00;101841.38;5163126;28;20026;-77
2021/09/12 11:31:04;;;;;;;18.55;8.13;;;;;;;23.14;100.00;101834.34;5161629;28;20084;-77
2021/09/12 11:33:48;;;;;;;16.67;7.40;;;;;;;23.07;100.00;101836.31;5162873;28;20038;-77